sensor_id;sensor_type;location;lat;lon;timestamp;P1;durP1;ratioP1;P2;durP2;ratioP2
13658;SDS011;6902;52.158;11.574;2022-11-14T00:00:22;0.10;;;0.10;;
13658;SDS011;6902;52.158;11.574;2022-11-14T00:03:08;0.10;;;0.10;;
13658;SDS011;6902;52.158;11.574;2022-11-14T00:05:54;0.10;;;0.10;;
13658;SDS011;6902;52.158;11.574;2022-11-14T00:08:41;0.10;;;0.10;;
13658;SDS011;6902;52.158;11.574;2022-11-14T00:11:27;0.10;;;0.10;;
13658;SDS011;6902;52.158;11.574;2022-11-14T00:14:14;0.10;;;0.10;;
13658;SDS011;6902;52.158;11.574;2022-11-14T00:17:02;0.10;;;0.10;;
13658;SDS011;6902;52.158;11.574;2022-11-14T00:19:48;0.13;;;0.13;;
13658;SDS011;6902;52.158;11.574;2022-11-14T00:22:34;0.20;;;0.20;;
13658;SDS011;6902;52.158;11.574;2022-11-14T00:25:20;0.10;;;0.10;;
13658;SDS011;6902;52.158;11.574;2022-11-14T00:28:07;0.10;;;0.10;;
13658;SDS011;6902;52.158;11.574;2022-11-14T00:30:53;0.10;;;0.10;;
13658;SDS011;6902;52.158;11.574;2022-11-14T00:33:41;0.10;;;0.10;;
13658;SDS011;6902;52.158;11.574;2022-11-14T00:36:27;0.10;;;0.10;;
13658;SDS011;6902;52.158;11.574;2022-11-14T00:39:14;0.10;;;0.10;;
13658;SDS011;6902;52.158;11.574;2022-11-14T00:42:00;0.10;;;0.10;;
13658;SDS011;6902;52.158;11.574;2022-11-14T00:44:47;0.20;;;0.20;;
13658;SDS011;6902;52.158;11.574;2022-11-14T00:47:33;0.20;;;0.20;;
13658;SDS011;6902;52.158;11.574;2022-11-14T00:50:21;0.10;;;0.10;;
13658;SDS011;6902;52.158;11.574;2022-11-14T00:53:07;0.10;;;0.10;;
13658;SDS011;6902;52.158;11.574;2022-11-14T00:55:54;0.10;;;0.10;;
13658;SDS011;6902;52.158;11.574;2022-11-14T00:58:40;0.10;;;0.10;;
13658;SDS011;6902;52.158;11.574;2022-11-14T01:01:26;0.10;;;0.10;;
13658;SDS011;6902;52.158;11.574;2022-11-14T01:04:13;0.10;;;0.10;;
13658;SDS011;6902;52.158;11.574;2022-11-14T01:07:00;0.10;;;0.10;;
13658;SDS011;6902;52.158;11.574;2022-11-14T01:09:47;0.20;;;0.20;;
13658;SDS011;6902;52.158;11.574;2022-11-14T01:12:33;0.10;;;0.10;;
13658;SDS011;6902;52.158;11.574;2022-11-14T01:15:20;0.20;;;0.20;;
13658;SDS011;6902;52.158;11.574;2022-11-14T01:18:06;0.10;;;0.10;;
13658;SDS011;6902;52.158;11.574;2022-11-14T01:20:52;0.20;;;0.20;;
13658;SDS011;6902;52.158;11.574;2022-11-14T01:23:40;0.30;;;0.30;;
13658;SDS011;6902;52.158;11.574;2022-11-14T01:26:26;0.30;;;0.30;;
13658;SDS011;6902;52.158;11.574;2022-11-14T01:29:12;0.20;;;0.20;;
13658;SDS011;6902;52.158;11.574;2022-11-14T01:31:58;0.20;;;0.20;;
13658;SDS011;6902;52.158;11.574;2022-11-14T01:34:45;0.10;;;0.10;;
13658;SDS011;6902;52.158;11.574;2022-11-14T01:37:31;0.20;;;0.20;;
13658;SDS011;6902;52.158;11.574;2022-11-14T01:40:19;0.10;;;0.10;;
13658;SDS011;6902;52.158;11.574;2022-11-14T01:43:21;0.10;;;0.10;;
13658;SDS011;6902;52.158;11.574;2022-11-14T01:46:09;0.20;;;0.20;;
13658;SDS011;6902;52.158;11.574;2022-11-14T01:48:58;0.30;;;0.30;;
13658;SDS011;6902;52.158;11.574;2022-11-14T01:51:46;0.63;;;0.63;;
13658;SDS011;6902;52.158;11.574;2022-11-14T01:54:34;0.40;;;0.40;;
13658;SDS011;6902;52.158;11.574;2022-11-14T01:57:24;0.50;;;0.50;;
13658;SDS011;6902;52.158;11.574;2022-11-14T02:00:12;0.50;;;0.50;;
13658;SDS011;6902;52.158;11.574;2022-11-14T02:02:58;0.53;;;0.53;;
13658;SDS011;6902;52.158;11.574;2022-11-14T02:05:45;0.70;;;0.70;;
13658;SDS011;6902;52.158;11.574;2022-11-14T02:08:33;0.50;;;0.50;;
13658;SDS011;6902;52.158;11.574;2022-11-14T02:11:20;0.63;;;0.63;;
13658;SDS011;6902;52.158;11.574;2022-11-14T02:14:08;0.40;;;0.40;;
13658;SDS011;6902;52.158;11.574;2022-11-14T02:16:54;0.50;;;0.50;;
13658;SDS011;6902;52.158;11.574;2022-11-14T02:19:41;0.50;;;0.50;;
13658;SDS011;6902;52.158;11.574;2022-11-14T02:22:29;0.40;;;0.40;;
13658;SDS011;6902;52.158;11.574;2022-11-14T02:25:16;0.60;;;0.60;;
13658;SDS011;6902;52.158;11.574;2022-11-14T02:28:03;0.33;;;0.33;;
13658;SDS011;6902;52.158;11.574;2022-11-14T02:30:49;0.40;;;0.40;;
13658;SDS011;6902;52.158;11.574;2022-11-14T02:33:35;0.37;;;0.37;;
13658;SDS011;6902;52.158;11.574;2022-11-14T02:36:21;0.30;;;0.30;;
13658;SDS011;6902;52.158;11.574;2022-11-14T02:39:09;0.50;;;0.50;;
13658;SDS011;6902;52.158;11.574;2022-11-14T02:41:55;0.37;;;0.37;;
13658;SDS011;6902;52.158;11.574;2022-11-14T02:44:42;0.40;;;0.40;;
13658;SDS011;6902;52.158;11.574;2022-11-14T02:47:28;0.90;;;0.90;;
13658;SDS011;6902;52.158;11.574;2022-11-14T02:50:14;0.30;;;0.30;;
13658;SDS011;6902;52.158;11.574;2022-11-14T02:53:00;0.70;;;0.70;;
13658;SDS011;6902;52.158;11.574;2022-11-14T02:55:48;0.33;;;0.33;;
13658;SDS011;6902;52.158;11.574;2022-11-14T02:58:34;0.20;;;0.20;;
13658;SDS011;6902;52.158;11.574;2022-11-14T03:01:21;0.40;;;0.40;;
13658;SDS011;6902;52.158;11.574;2022-11-14T03:04:07;0.40;;;0.40;;
13658;SDS011;6902;52.158;11.574;2022-11-14T03:06:53;0.40;;;0.40;;
13658;SDS011;6902;52.158;11.574;2022-11-14T03:09:40;0.40;;;0.40;;
13658;SDS011;6902;52.158;11.574;2022-11-14T03:12:28;0.30;;;0.30;;
13658;SDS011;6902;52.158;11.574;2022-11-14T03:15:14;0.20;;;0.20;;
13658;SDS011;6902;52.158;11.574;2022-11-14T03:18:00;0.10;;;0.10;;
13658;SDS011;6902;52.158;11.574;2022-11-14T03:20:48;0.10;;;0.10;;
13658;SDS011;6902;52.158;11.574;2022-11-14T03:23:34;0.10;;;0.10;;
13658;SDS011;6902;52.158;11.574;2022-11-14T03:26:20;0.00;;;0.00;;
13658;SDS011;6902;52.158;11.574;2022-11-14T03:29:08;0.10;;;0.10;;
13658;SDS011;6902;52.158;11.574;2022-11-14T03:31:54;0.10;;;0.10;;
13658;SDS011;6902;52.158;11.574;2022-11-14T03:34:41;0.10;;;0.10;;
13658;SDS011;6902;52.158;11.574;2022-11-14T03:37:27;0.10;;;0.10;;
13658;SDS011;6902;52.158;11.574;2022-11-14T03:40:14;0.10;;;0.10;;
13658;SDS011;6902;52.158;11.574;2022-11-14T03:43:00;0.10;;;0.10;;
13658;SDS011;6902;52.158;11.574;2022-11-14T03:45:48;0.10;;;0.10;;
13658;SDS011;6902;52.158;11.574;2022-11-14T03:48:34;0.10;;;0.10;;
13658;SDS011;6902;52.158;11.574;2022-11-14T03:51:20;0.10;;;0.10;;
13658;SDS011;6902;52.158;11.574;2022-11-14T03:54:06;0.10;;;0.10;;
13658;SDS011;6902;52.158;11.574;2022-11-14T03:56:53;0.10;;;0.10;;
13658;SDS011;6902;52.158;11.574;2022-11-14T03:59:39;0.10;;;0.10;;
13658;SDS011;6902;52.158;11.574;2022-11-14T04:02:27;0.10;;;0.10;;
13658;SDS011;6902;52.158;11.574;2022-11-14T04:05:13;0.10;;;0.10;;
13658;SDS011;6902;52.158;11.574;2022-11-14T04:07:59;0.10;;;0.10;;
13658;SDS011;6902;52.158;11.574;2022-11-14T04:10:45;0.10;;;0.10;;
13658;SDS011;6902;52.158;11.574;2022-11-14T04:13:32;0.10;;;0.10;;
13658;SDS011;6902;52.158;11.574;2022-11-14T04:16:19;0.10;;;0.10;;
13658;SDS011;6902;52.158;11.574;2022-11-14T04:19:06;0.17;;;0.17;;
13658;SDS011;6902;52.158;11.574;2022-11-14T04:21:52;0.10;;;0.10;;
13658;SDS011;6902;52.158;11.574;2022-11-14T04:24:38;0.10;;;0.10;;
13658;SDS011;6902;52.158;11.574;2022-11-14T04:27:24;0.10;;;0.10;;
13658;SDS011;6902;52.158;11.574;2022-11-14T04:30:10;0.10;;;0.10;;
13658;SDS011;6902;52.158;11.574;2022-11-14T04:32:57;0.10;;;0.10;;
13658;SDS011;6902;52.158;11.574;2022-11-14T04:35:43;0.10;;;0.10;;
13658;SDS011;6902;52.158;11.574;2022-11-14T04:38:29;0.10;;;0.10;;
13658;SDS011;6902;52.158;11.574;2022-11-14T04:41:15;0.10;;;0.10;;
13658;SDS011;6902;52.158;11.574;2022-11-14T04:44:00;0.10;;;0.10;;
13658;SDS011;6902;52.158;11.574;2022-11-14T04:46:46;0.10;;;0.10;;
13658;SDS011;6902;52.158;11.574;2022-11-14T04:49:32;0.10;;;0.10;;
13658;SDS011;6902;52.158;11.574;2022-11-14T04:52:19;0.10;;;0.10;;
13658;SDS011;6902;52.158;11.574;2022-11-14T04:55:05;0.10;;;0.10;;
13658;SDS011;6902;52.158;11.574;2022-11-14T04:57:52;0.10;;;0.10;;
13658;SDS011;6902;52.158;11.574;2022-11-14T05:00:38;0.10;;;0.10;;
13658;SDS011;6902;52.158;11.574;2022-11-14T05:03:24;0.10;;;0.10;;
13658;SDS011;6902;52.158;11.574;2022-11-14T05:06:10;0.10;;;0.10;;
13658;SDS011;6902;52.158;11.574;2022-11-14T05:08:57;0.10;;;0.10;;
13658;SDS011;6902;52.158;11.574;2022-11-14T05:11:43;0.10;;;0.10;;
13658;SDS011;6902;52.158;11.574;2022-11-14T05:14:29;0.10;;;0.10;;
13658;SDS011;6902;52.158;11.574;2022-11-14T05:17:15;0.10;;;0.10;;
13658;SDS011;6902;52.158;11.574;2022-11-14T05:20:01;0.10;;;0.10;;
13658;SDS011;6902;52.158;11.574;2022-11-14T05:22:47;0.10;;;0.10;;
13658;SDS011;6902;52.158;11.574;2022-11-14T05:25:37;0.10;;;0.10;;
13658;SDS011;6902;52.158;11.574;2022-11-14T05:28:23;0.10;;;0.10;;
13658;SDS011;6902;52.158;11.574;2022-11-14T05:31:09;0.10;;;0.10;;
13658;SDS011;6902;52.158;11.574;2022-11-14T05:33:56;0.10;;;0.10;;
13658;SDS011;6902;52.158;11.574;2022-11-14T05:36:42;0.10;;;0.10;;
13658;SDS011;6902;52.158;11.574;2022-11-14T05:39:28;0.10;;;0.10;;
13658;SDS011;6902;52.158;11.574;2022-11-14T05:42:15;0.10;;;0.10;;
13658;SDS011;6902;52.158;11.574;2022-11-14T05:45:02;0.10;;;0.10;;
13658;SDS011;6902;52.158;11.574;2022-11-14T05:47:50;0.10;;;0.10;;
13658;SDS011;6902;52.158;11.574;2022-11-14T05:50:37;0.10;;;0.10;;
13658;SDS011;6902;52.158;11.574;2022-11-14T05:53:23;0.10;;;0.10;;
13658;SDS011;6902;52.158;11.574;2022-11-14T05:56:10;0.10;;;0.10;;
13658;SDS011;6902;52.158;11.574;2022-11-14T05:58:58;0.10;;;0.10;;
13658;SDS011;6902;52.158;11.574;2022-11-14T06:01:44;0.10;;;0.10;;
13658;SDS011;6902;52.158;11.574;2022-11-14T06:04:30;0.10;;;0.10;;
13658;SDS011;6902;52.158;11.574;2022-11-14T06:07:16;0.10;;;0.10;;
13658;SDS011;6902;52.158;11.574;2022-11-14T06:10:01;0.10;;;0.10;;
13658;SDS011;6902;52.158;11.574;2022-11-14T06:12:47;0.10;;;0.10;;
13658;SDS011;6902;52.158;11.574;2022-11-14T06:15:34;0.10;;;0.10;;
13658;SDS011;6902;52.158;11.574;2022-11-14T06:18:21;0.10;;;0.10;;
13658;SDS011;6902;52.158;11.574;2022-11-14T06:21:08;0.00;;;0.00;;
13658;SDS011;6902;52.158;11.574;2022-11-14T06:23:56;0.10;;;0.10;;
13658;SDS011;6902;52.158;11.574;2022-11-14T06:26:42;0.10;;;0.10;;
13658;SDS011;6902;52.158;11.574;2022-11-14T06:29:27;0.10;;;0.10;;
13658;SDS011;6902;52.158;11.574;2022-11-14T06:32:14;0.10;;;0.10;;
13658;SDS011;6902;52.158;11.574;2022-11-14T06:35:00;0.10;;;0.10;;
13658;SDS011;6902;52.158;11.574;2022-11-14T06:37:46;0.10;;;0.10;;
13658;SDS011;6902;52.158;11.574;2022-11-14T06:40:32;0.10;;;0.10;;
13658;SDS011;6902;52.158;11.574;2022-11-14T06:43:18;0.10;;;0.10;;
13658;SDS011;6902;52.158;11.574;2022-11-14T06:46:04;0.00;;;0.00;;
13658;SDS011;6902;52.158;11.574;2022-11-14T06:48:52;0.10;;;0.10;;
13658;SDS011;6902;52.158;11.574;2022-11-14T06:51:37;0.10;;;0.10;;
13658;SDS011;6902;52.158;11.574;2022-11-14T06:54:23;0.10;;;0.10;;
13658;SDS011;6902;52.158;11.574;2022-11-14T06:57:09;0.10;;;0.10;;
13658;SDS011;6902;52.158;11.574;2022-11-14T06:59:56;0.10;;;0.10;;
13658;SDS011;6902;52.158;11.574;2022-11-14T07:02:44;0.10;;;0.10;;
13658;SDS011;6902;52.158;11.574;2022-11-14T07:05:31;0.10;;;0.10;;
13658;SDS011;6902;52.158;11.574;2022-11-14T07:08:17;0.10;;;0.10;;
13658;SDS011;6902;52.158;11.574;2022-11-14T07:11:04;0.10;;;0.10;;
13658;SDS011;6902;52.158;11.574;2022-11-14T07:13:52;0.10;;;0.10;;
13658;SDS011;6902;52.158;11.574;2022-11-14T07:16:39;0.10;;;0.10;;
13658;SDS011;6902;52.158;11.574;2022-11-14T07:19:24;0.10;;;0.10;;
13658;SDS011;6902;52.158;11.574;2022-11-14T07:22:11;0.10;;;0.10;;
13658;SDS011;6902;52.158;11.574;2022-11-14T07:24:57;0.10;;;0.10;;
13658;SDS011;6902;52.158;11.574;2022-11-14T07:27:43;0.10;;;0.10;;
13658;SDS011;6902;52.158;11.574;2022-11-14T07:30:29;0.10;;;0.10;;
13658;SDS011;6902;52.158;11.574;2022-11-14T07:33:14;0.10;;;0.10;;
13658;SDS011;6902;52.158;11.574;2022-11-14T07:36:00;0.00;;;0.00;;
13658;SDS011;6902;52.158;11.574;2022-11-14T07:38:48;0.10;;;0.10;;
13658;SDS011;6902;52.158;11.574;2022-11-14T07:41:34;0.10;;;0.10;;
13658;SDS011;6902;52.158;11.574;2022-11-14T07:44:20;0.10;;;0.10;;
13658;SDS011;6902;52.158;11.574;2022-11-14T07:47:05;0.10;;;0.10;;
13658;SDS011;6902;52.158;11.574;2022-11-14T07:49:51;0.10;;;0.10;;
13658;SDS011;6902;52.158;11.574;2022-11-14T07:52:37;0.10;;;0.10;;
13658;SDS011;6902;52.158;11.574;2022-11-14T07:55:25;0.10;;;0.10;;
13658;SDS011;6902;52.158;11.574;2022-11-14T07:58:11;0.10;;;0.10;;
13658;SDS011;6902;52.158;11.574;2022-11-14T08:00:59;0.10;;;0.10;;
13658;SDS011;6902;52.158;11.574;2022-11-14T08:03:45;0.10;;;0.10;;
13658;SDS011;6902;52.158;11.574;2022-11-14T08:06:31;0.10;;;0.10;;
13658;SDS011;6902;52.158;11.574;2022-11-14T08:09:17;0.10;;;0.10;;
13658;SDS011;6902;52.158;11.574;2022-11-14T08:12:05;0.10;;;0.10;;
13658;SDS011;6902;52.158;11.574;2022-11-14T08:14:51;0.10;;;0.10;;
13658;SDS011;6902;52.158;11.574;2022-11-14T08:17:37;0.10;;;0.10;;
13658;SDS011;6902;52.158;11.574;2022-11-14T08:20:23;0.10;;;0.10;;
13658;SDS011;6902;52.158;11.574;2022-11-14T08:23:10;0.10;;;0.10;;
13658;SDS011;6902;52.158;11.574;2022-11-14T08:25:56;0.10;;;0.10;;
13658;SDS011;6902;52.158;11.574;2022-11-14T08:28:44;0.10;;;0.10;;
13658;SDS011;6902;52.158;11.574;2022-11-14T08:31:30;0.10;;;0.10;;
13658;SDS011;6902;52.158;11.574;2022-11-14T08:34:16;0.10;;;0.10;;
13658;SDS011;6902;52.158;11.574;2022-11-14T08:37:02;0.10;;;0.10;;
13658;SDS011;6902;52.158;11.574;2022-11-14T08:39:48;0.10;;;0.10;;
13658;SDS011;6902;52.158;11.574;2022-11-14T08:42:34;0.10;;;0.10;;
13658;SDS011;6902;52.158;11.574;2022-11-14T08:45:21;0.10;;;0.10;;
13658;SDS011;6902;52.158;11.574;2022-11-14T08:48:07;0.10;;;0.10;;
13658;SDS011;6902;52.158;11.574;2022-11-14T08:50:52;0.10;;;0.10;;
13658;SDS011;6902;52.158;11.574;2022-11-14T08:53:38;0.10;;;0.10;;
13658;SDS011;6902;52.158;11.574;2022-11-14T08:56:24;0.10;;;0.10;;
13658;SDS011;6902;52.158;11.574;2022-11-14T08:59:10;0.10;;;0.10;;
13658;SDS011;6902;52.158;11.574;2022-11-14T09:01:57;0.10;;;0.10;;
13658;SDS011;6902;52.158;11.574;2022-11-14T09:04:43;0.10;;;0.10;;
13658;SDS011;6902;52.158;11.574;2022-11-14T09:07:29;0.10;;;0.10;;
13658;SDS011;6902;52.158;11.574;2022-11-14T09:10:14;0.10;;;0.10;;
13658;SDS011;6902;52.158;11.574;2022-11-14T09:13:01;0.10;;;0.10;;
13658;SDS011;6902;52.158;11.574;2022-11-14T09:15:47;0.10;;;0.10;;
13658;SDS011;6902;52.158;11.574;2022-11-14T09:18:34;0.10;;;0.10;;
13658;SDS011;6902;52.158;11.574;2022-11-14T09:21:20;0.00;;;0.00;;
13658;SDS011;6902;52.158;11.574;2022-11-14T09:24:06;0.00;;;0.00;;
13658;SDS011;6902;52.158;11.574;2022-11-14T09:26:52;0.10;;;0.10;;
13658;SDS011;6902;52.158;11.574;2022-11-14T09:29:38;0.10;;;0.10;;
13658;SDS011;6902;52.158;11.574;2022-11-14T09:32:24;0.10;;;0.10;;
13658;SDS011;6902;52.158;11.574;2022-11-14T09:35:11;0.10;;;0.10;;
13658;SDS011;6902;52.158;11.574;2022-11-14T09:37:58;0.10;;;0.10;;
13658;SDS011;6902;52.158;11.574;2022-11-14T09:40:51;0.03;;;0.03;;
13658;SDS011;6902;52.158;11.574;2022-11-14T09:43:49;0.10;;;0.10;;
13658;SDS011;6902;52.158;11.574;2022-11-14T09:46:57;0.10;;;0.10;;
13658;SDS011;6902;52.158;11.574;2022-11-14T09:49:48;0.10;;;0.10;;
13658;SDS011;6902;52.158;11.574;2022-11-14T09:52:39;0.10;;;0.10;;
13658;SDS011;6902;52.158;11.574;2022-11-14T09:55:30;0.00;;;0.00;;
13658;SDS011;6902;52.158;11.574;2022-11-14T09:58:17;0.10;;;0.10;;
13658;SDS011;6902;52.158;11.574;2022-11-14T10:01:05;0.10;;;0.10;;
13658;SDS011;6902;52.158;11.574;2022-11-14T10:03:57;0.10;;;0.10;;
13658;SDS011;6902;52.158;11.574;2022-11-14T10:06:50;0.10;;;0.10;;
13658;SDS011;6902;52.158;11.574;2022-11-14T10:09:48;0.00;;;0.00;;
13658;SDS011;6902;52.158;11.574;2022-11-14T10:12:45;0.10;;;0.10;;
13658;SDS011;6902;52.158;11.574;2022-11-14T10:15:39;0.10;;;0.10;;
13658;SDS011;6902;52.158;11.574;2022-11-14T10:18:34;0.10;;;0.10;;
13658;SDS011;6902;52.158;11.574;2022-11-14T10:21:40;0.10;;;0.10;;
13658;SDS011;6902;52.158;11.574;2022-11-14T10:24:31;0.10;;;0.10;;
13658;SDS011;6902;52.158;11.574;2022-11-14T10:27:32;0.10;;;0.10;;
13658;SDS011;6902;52.158;11.574;2022-11-14T10:30:21;0.10;;;0.10;;
13658;SDS011;6902;52.158;11.574;2022-11-14T10:33:10;0.10;;;0.10;;
13658;SDS011;6902;52.158;11.574;2022-11-14T10:36:06;0.10;;;0.10;;
13658;SDS011;6902;52.158;11.574;2022-11-14T10:38:58;0.10;;;0.10;;
13658;SDS011;6902;52.158;11.574;2022-11-14T10:41:47;0.10;;;0.10;;
13658;SDS011;6902;52.158;11.574;2022-11-14T10:44:38;0.10;;;0.10;;
13658;SDS011;6902;52.158;11.574;2022-11-14T10:47:29;0.00;;;0.00;;
13658;SDS011;6902;52.158;11.574;2022-11-14T10:50:18;0.00;;;0.00;;
13658;SDS011;6902;52.158;11.574;2022-11-14T10:53:09;0.10;;;0.10;;
13658;SDS011;6902;52.158;11.574;2022-11-14T10:55:59;0.10;;;0.10;;
13658;SDS011;6902;52.158;11.574;2022-11-14T10:58:46;0.10;;;0.10;;
13658;SDS011;6902;52.158;11.574;2022-11-14T11:01:35;0.10;;;0.10;;
13658;SDS011;6902;52.158;11.574;2022-11-14T11:04:24;0.00;;;0.00;;
13658;SDS011;6902;52.158;11.574;2022-11-14T11:07:18;0.10;;;0.10;;
13658;SDS011;6902;52.158;11.574;2022-11-14T11:10:23;0.10;;;0.10;;
13658;SDS011;6902;52.158;11.574;2022-11-14T11:13:29;0.10;;;0.10;;
13658;SDS011;6902;52.158;11.574;2022-11-14T11:16:18;0.10;;;0.10;;
13658;SDS011;6902;52.158;11.574;2022-11-14T11:19:13;0.10;;;0.10;;
13658;SDS011;6902;52.158;11.574;2022-11-14T11:22:00;0.10;;;0.10;;
13658;SDS011;6902;52.158;11.574;2022-11-14T11:24:46;0.10;;;0.10;;
13658;SDS011;6902;52.158;11.574;2022-11-14T11:27:33;0.03;;;0.03;;
13658;SDS011;6902;52.158;11.574;2022-11-14T11:30:19;0.10;;;0.10;;
13658;SDS011;6902;52.158;11.574;2022-11-14T11:33:16;0.10;;;0.10;;
13658;SDS011;6902;52.158;11.574;2022-11-14T11:36:05;0.00;;;0.00;;
13658;SDS011;6902;52.158;11.574;2022-11-14T11:38:52;0.07;;;0.07;;
13658;SDS011;6902;52.158;11.574;2022-11-14T11:41:38;0.10;;;0.10;;
13658;SDS011;6902;52.158;11.574;2022-11-14T11:44:26;0.10;;;0.10;;
13658;SDS011;6902;52.158;11.574;2022-11-14T11:47:15;0.10;;;0.10;;
13658;SDS011;6902;52.158;11.574;2022-11-14T11:50:02;0.00;;;0.00;;
13658;SDS011;6902;52.158;11.574;2022-11-14T11:52:53;0.10;;;0.10;;
13658;SDS011;6902;52.158;11.574;2022-11-14T11:55:42;0.03;;;0.03;;
13658;SDS011;6902;52.158;11.574;2022-11-14T11:58:31;0.10;;;0.10;;
13658;SDS011;6902;52.158;11.574;2022-11-14T12:01:18;0.00;;;0.00;;
13658;SDS011;6902;52.158;11.574;2022-11-14T12:04:04;0.00;;;0.00;;
13658;SDS011;6902;52.158;11.574;2022-11-14T12:06:53;0.10;;;0.10;;
13658;SDS011;6902;52.158;11.574;2022-11-14T12:09:42;0.10;;;0.10;;
13658;SDS011;6902;52.158;11.574;2022-11-14T12:12:30;0.10;;;0.10;;
13658;SDS011;6902;52.158;11.574;2022-11-14T12:15:21;0.00;;;0.00;;
13658;SDS011;6902;52.158;11.574;2022-11-14T12:18:13;0.10;;;0.10;;
13658;SDS011;6902;52.158;11.574;2022-11-14T12:21:10;0.00;;;0.00;;
13658;SDS011;6902;52.158;11.574;2022-11-14T12:24:04;0.10;;;0.10;;
13658;SDS011;6902;52.158;11.574;2022-11-14T12:26:58;0.00;;;0.00;;
13658;SDS011;6902;52.158;11.574;2022-11-14T12:29:55;0.00;;;0.00;;
13658;SDS011;6902;52.158;11.574;2022-11-14T12:32:48;0.10;;;0.10;;
13658;SDS011;6902;52.158;11.574;2022-11-14T12:35:36;0.00;;;0.00;;
13658;SDS011;6902;52.158;11.574;2022-11-14T12:38:23;0.03;;;0.03;;
13658;SDS011;6902;52.158;11.574;2022-11-14T12:41:11;0.00;;;0.00;;
13658;SDS011;6902;52.158;11.574;2022-11-14T12:47:11;0.10;;;0.10;;
13658;SDS011;6902;52.158;11.574;2022-11-14T12:50:00;0.00;;;0.00;;
13658;SDS011;6902;52.158;11.574;2022-11-14T12:52:47;0.10;;;0.10;;
13658;SDS011;6902;52.158;11.574;2022-11-14T12:58:53;0.10;;;0.10;;
13658;SDS011;6902;52.158;11.574;2022-11-14T13:01:46;0.00;;;0.00;;
13658;SDS011;6902;52.158;11.574;2022-11-14T13:04:36;0.10;;;0.10;;
13658;SDS011;6902;52.158;11.574;2022-11-14T13:07:28;0.00;;;0.00;;
13658;SDS011;6902;52.158;11.574;2022-11-14T13:10:21;0.00;;;0.00;;
13658;SDS011;6902;52.158;11.574;2022-11-14T13:13:11;0.00;;;0.00;;
13658;SDS011;6902;52.158;11.574;2022-11-14T13:16:21;0.10;;;0.10;;
13658;SDS011;6902;52.158;11.574;2022-11-14T13:19:22;0.00;;;0.00;;
13658;SDS011;6902;52.158;11.574;2022-11-14T13:22:35;0.00;;;0.00;;
13658;SDS011;6902;52.158;11.574;2022-11-14T13:25:23;0.00;;;0.00;;
13658;SDS011;6902;52.158;11.574;2022-11-14T13:28:42;0.00;;;0.00;;
13658;SDS011;6902;52.158;11.574;2022-11-14T13:31:41;0.03;;;0.03;;
13658;SDS011;6902;52.158;11.574;2022-11-14T13:34:29;0.00;;;0.00;;
13658;SDS011;6902;52.158;11.574;2022-11-14T13:37:21;0.00;;;0.00;;
13658;SDS011;6902;52.158;11.574;2022-11-14T13:40:12;0.10;;;0.10;;
13658;SDS011;6902;52.158;11.574;2022-11-14T13:43:02;0.00;;;0.00;;
13658;SDS011;6902;52.158;11.574;2022-11-14T13:45:52;0.10;;;0.10;;
13658;SDS011;6902;52.158;11.574;2022-11-14T13:48:52;0.03;;;0.03;;
13658;SDS011;6902;52.158;11.574;2022-11-14T13:51:41;0.00;;;0.00;;
13658;SDS011;6902;52.158;11.574;2022-11-14T13:54:28;0.10;;;0.10;;
13658;SDS011;6902;52.158;11.574;2022-11-14T13:57:18;0.00;;;0.00;;
13658;SDS011;6902;52.158;11.574;2022-11-14T14:00:08;0.00;;;0.00;;
13658;SDS011;6902;52.158;11.574;2022-11-14T14:03:06;0.00;;;0.00;;
13658;SDS011;6902;52.158;11.574;2022-11-14T14:05:59;0.10;;;0.10;;
13658;SDS011;6902;52.158;11.574;2022-11-14T14:08:51;0.00;;;0.00;;
13658;SDS011;6902;52.158;11.574;2022-11-14T14:11:45;0.10;;;0.10;;
13658;SDS011;6902;52.158;11.574;2022-11-14T14:14:39;0.10;;;0.10;;
13658;SDS011;6902;52.158;11.574;2022-11-14T14:17:29;0.07;;;0.07;;
13658;SDS011;6902;52.158;11.574;2022-11-14T14:20:28;0.00;;;0.00;;
13658;SDS011;6902;52.158;11.574;2022-11-14T14:23:19;0.10;;;0.10;;
13658;SDS011;6902;52.158;11.574;2022-11-14T14:26:14;0.00;;;0.00;;
13658;SDS011;6902;52.158;11.574;2022-11-14T14:29:03;0.00;;;0.00;;
13658;SDS011;6902;52.158;11.574;2022-11-14T14:31:52;0.00;;;0.00;;
13658;SDS011;6902;52.158;11.574;2022-11-14T14:34:50;0.00;;;0.00;;
13658;SDS011;6902;52.158;11.574;2022-11-14T14:37:48;0.00;;;0.00;;
13658;SDS011;6902;52.158;11.574;2022-11-14T14:40:35;0.00;;;0.00;;
13658;SDS011;6902;52.158;11.574;2022-11-14T14:43:23;0.00;;;0.00;;
13658;SDS011;6902;52.158;11.574;2022-11-14T14:46:10;0.10;;;0.10;;
13658;SDS011;6902;52.158;11.574;2022-11-14T14:48:59;0.03;;;0.03;;
13658;SDS011;6902;52.158;11.574;2022-11-14T14:51:46;0.10;;;0.10;;
13658;SDS011;6902;52.158;11.574;2022-11-14T14:54:32;0.00;;;0.00;;
13658;SDS011;6902;52.158;11.574;2022-11-14T14:57:19;0.00;;;0.00;;
13658;SDS011;6902;52.158;11.574;2022-11-14T15:00:06;0.00;;;0.00;;
13658;SDS011;6902;52.158;11.574;2022-11-14T15:02:53;0.10;;;0.10;;
13658;SDS011;6902;52.158;11.574;2022-11-14T15:05:42;0.10;;;0.10;;
13658;SDS011;6902;52.158;11.574;2022-11-14T15:08:28;0.10;;;0.10;;
13658;SDS011;6902;52.158;11.574;2022-11-14T15:11:14;0.10;;;0.10;;
13658;SDS011;6902;52.158;11.574;2022-11-14T15:14:01;0.00;;;0.00;;
13658;SDS011;6902;52.158;11.574;2022-11-14T15:16:47;0.00;;;0.00;;
13658;SDS011;6902;52.158;11.574;2022-11-14T15:19:36;0.00;;;0.00;;
13658;SDS011;6902;52.158;11.574;2022-11-14T15:22:25;0.07;;;0.07;;
13658;SDS011;6902;52.158;11.574;2022-11-14T15:25:17;0.10;;;0.10;;
13658;SDS011;6902;52.158;11.574;2022-11-14T15:28:11;0.10;;;0.10;;
13658;SDS011;6902;52.158;11.574;2022-11-14T15:30:59;0.00;;;0.00;;
13658;SDS011;6902;52.158;11.574;2022-11-14T15:33:58;0.00;;;0.00;;
13658;SDS011;6902;52.158;11.574;2022-11-14T15:39:47;0.00;;;0.00;;
13658;SDS011;6902;52.158;11.574;2022-11-14T15:42:33;0.10;;;0.10;;
13658;SDS011;6902;52.158;11.574;2022-11-14T15:45:20;0.10;;;0.10;;
13658;SDS011;6902;52.158;11.574;2022-11-14T15:48:10;0.10;;;0.10;;
13658;SDS011;6902;52.158;11.574;2022-11-14T15:50:57;0.10;;;0.10;;
13658;SDS011;6902;52.158;11.574;2022-11-14T15:53:43;0.00;;;0.00;;
13658;SDS011;6902;52.158;11.574;2022-11-14T15:56:30;0.10;;;0.10;;
13658;SDS011;6902;52.158;11.574;2022-11-14T15:59:16;0.00;;;0.00;;
13658;SDS011;6902;52.158;11.574;2022-11-14T16:02:03;0.00;;;0.00;;
13658;SDS011;6902;52.158;11.574;2022-11-14T16:04:55;0.07;;;0.07;;
13658;SDS011;6902;52.158;11.574;2022-11-14T16:07:42;0.00;;;0.00;;
13658;SDS011;6902;52.158;11.574;2022-11-14T16:10:29;0.10;;;0.10;;
13658;SDS011;6902;52.158;11.574;2022-11-14T16:13:16;0.10;;;0.10;;
13658;SDS011;6902;52.158;11.574;2022-11-14T16:16:02;0.00;;;0.00;;
13658;SDS011;6902;52.158;11.574;2022-11-14T16:18:48;0.00;;;0.00;;
13658;SDS011;6902;52.158;11.574;2022-11-14T16:21:36;0.00;;;0.00;;
13658;SDS011;6902;52.158;11.574;2022-11-14T16:24:22;0.10;;;0.10;;
13658;SDS011;6902;52.158;11.574;2022-11-14T16:27:08;0.10;;;0.10;;
13658;SDS011;6902;52.158;11.574;2022-11-14T16:29:56;0.00;;;0.00;;
13658;SDS011;6902;52.158;11.574;2022-11-14T16:32:43;0.00;;;0.00;;
13658;SDS011;6902;52.158;11.574;2022-11-14T16:35:30;0.10;;;0.10;;
13658;SDS011;6902;52.158;11.574;2022-11-14T16:38:16;0.10;;;0.10;;
13658;SDS011;6902;52.158;11.574;2022-11-14T16:41:05;0.10;;;0.10;;
13658;SDS011;6902;52.158;11.574;2022-11-14T16:43:52;0.00;;;0.00;;
13658;SDS011;6902;52.158;11.574;2022-11-14T16:46:40;0.00;;;0.00;;
13658;SDS011;6902;52.158;11.574;2022-11-14T16:49:26;0.10;;;0.10;;
13658;SDS011;6902;52.158;11.574;2022-11-14T16:52:12;0.10;;;0.10;;
13658;SDS011;6902;52.158;11.574;2022-11-14T16:55:00;0.00;;;0.00;;
13658;SDS011;6902;52.158;11.574;2022-11-14T16:57:46;0.00;;;0.00;;
13658;SDS011;6902;52.158;11.574;2022-11-14T17:00:32;0.10;;;0.10;;
13658;SDS011;6902;52.158;11.574;2022-11-14T17:03:20;0.00;;;0.00;;